Time;durP1;ratioP1;P1;durP2;ratioP2;P2;SDS_P1;SDS_P2;PMS_P1;PMS_P2;Temp;Humidity;BMP_temperature;BMP_pressure;BME280_temperature;BME280_humidity;BME280_pressure;Samples;Min_cycle;Max_cycle;Signal;HPM_P1;HPM_P2
2022/08/21 00:02:21;;;;;;;18.30;11.90;;;18.50;99.90;18.60;100511.00;;;;4944204;28;93858;-69
2022/08/21 00:04:48;;;;;;;14.27;11.15;;;18.50;99.90;18.60;100513.00;;;;4942113;28;94192;-67
2022/08/21 00:07:14;;;;;;;13.45;11.20;;;18.50;99.90;18.70;100520.00;;;;4938911;28;93229;-67
2022/08/21 00:09:40;;;;;;;13.98;9.95;;;18.60;99.90;18.70;100506.00;;;;4943343;28;93993;-67
2022/08/21 00:12:06;;;;;;;12.77;11.02;;;18.50;99.90;18.70;100508.00;;;;4946300;28;93855;-69
2022/08/21 00:14:34;;;;;;;15.32;11.32;;;18.50;99.90;18.70;100506.00;;;;4936285;28;93520;-69
2022/08/21 00:17:00;;;;;;;16.67;11.63;;;18.50;99.90;18.70;100521.00;;;;4947948;28;93266;-66
2022/08/21 00:19:27;;;;;;;13.60;9.70;;;18.50;99.90;18.70;100508.00;;;;4939499;28;92285;-67
2022/08/21 00:21:54;;;;;;;18.20;11.75;;;18.60;99.90;18.70;100511.00;;;;4940329;28;94822;-69
2022/08/21 00:24:22;;;;;;;14.98;11.45;;;18.60;99.90;18.70;100510.00;;;;4946702;28;93620;-69
2022/08/21 00:26:48;;;;;;;16.77;13.38;;;18.60;99.90;18.70;100507.00;;;;4942002;28;93742;-70
2022/08/21 00:29:15;;;;;;;13.25;8.95;;;18.50;99.90;18.70;100509.00;;;;4938589;28;102976;-67
2022/08/21 00:31:42;;;;;;;17.60;10.60;;;18.60;99.90;18.70;100518.00;;;;4942644;28;92911;-69
2022/08/21 00:34:10;;;;;;;15.77;11.13;;;18.50;99.90;18.70;100513.00;;;;4947567;28;94216;-67
2022/08/21 00:36:36;;;;;;;17.23;11.13;;;18.60;99.90;18.70;100519.00;;;;4946363;28;94145;-68
2022/08/21 00:39:04;;;;;;;14.32;11.05;;;18.50;99.90;18.70;100523.00;;;;4940885;28;93143;-67
2022/08/21 00:41:30;;;;;;;14.55;10.95;;;18.50;99.90;18.70;100518.00;;;;4948208;28;92976;-67
2022/08/21 00:43:55;;;;;;;15.07;11.68;;;18.50;99.90;18.70;100516.00;;;;4942733;28;92630;-68
2022/08/21 00:46:22;;;;;;;19.48;11.93;;;18.50;99.90;18.70;100522.00;;;;4943902;28;105258;-68
2022/08/21 00:48:48;;;;;;;15.98;10.75;;;18.50;99.90;18.70;100518.00;;;;4965435;28;109402;-68
2022/08/21 00:51:25;;;;;;;14.07;11.55;;;18.50;99.90;18.70;100511.00;;;;4950742;28;107998;-68
2022/08/21 00:53:56;;;;;;;14.80;10.50;;;18.60;99.90;18.70;100513.00;;;;4943187;28;94190;-68
2022/08/21 00:56:24;;;;;;;15.10;11.30;;;18.60;99.90;18.70;100514.00;;;;4942222;28;101379;-69
2022/08/21 00:58:52;;;;;;;14.85;10.88;;;18.50;99.90;18.70;100513.00;;;;4940554;28;92859;-69
2022/08/21 01:01:18;;;;;;;16.17;11.50;;;18.50;99.90;18.60;100519.00;;;;4940252;28;93233;-72
2022/08/21 01:03:45;;;;;;;17.42;12.10;;;18.60;99.90;18.60;100510.00;;;;4962563;28;93316;-69
2022/08/21 01:06:11;;;;;;;15.05;11.48;;;18.50;99.90;18.60;100515.00;;;;4944708;28;110982;-74
2022/08/21 01:08:37;;;;;;;15.00;10.43;;;18.50;99.90;18.60;100508.00;;;;4944065;28;92264;-74
2022/08/21 01:11:04;;;;;;;21.05;11.68;;;18.50;99.90;18.60;100509.00;;;;4938821;28;108169;-72
2022/08/21 01:13:34;;;;;;;15.27;10.75;;;18.50;99.90;18.70;100512.00;;;;4961640;28;94543;-74
2022/08/21 01:16:05;;;;;;;16.02;10.52;;;18.50;99.90;18.60;100515.00;;;;4941749;28;94127;-75
2022/08/21 01:18:30;;;;;;;14.73;11.77;;;18.50;99.90;18.60;100521.00;;;;4947670;28;93042;-75
2022/08/21 01:21:07;;;;;;;12.40;10.20;;;18.50;99.90;18.60;100507.00;;;;4943825;28;109326;-74
2022/08/21 01:23:35;;;;;;;11.30;8.48;;;18.50;99.90;18.60;100512.00;;;;4943167;28;94887;-74
2022/08/21 01:26:02;;;;;;;12.02;9.45;;;18.50;99.90;18.60;100510.00;;;;4948697;28;93068;-74
2022/08/21 01:28:42;;;;;;;15.38;10.40;;;18.70;99.90;18.60;100512.00;;;;4943718;28;92868;-74
2022/08/21 01:31:10;;;;;;;15.63;9.55;;;18.50;99.90;18.60;100503.00;;;;4946833;28;92785;-74
2022/08/21 01:33:36;;;;;;;16.23;9.75;;;18.50;99.90;18.60;100504.00;;;;4938288;28;100004;-73
2022/08/21 01:36:02;;;;;;;11.82;9.70;;;18.50;99.90;18.60;100502.00;;;;4937637;28;92964;-74
2022/08/21 01:38:28;;;;;;;12.40;9.18;;;18.50;99.90;18.60;100496.00;;;;4941237;28;98332;-72
2022/08/21 01:40:54;;;;;;;11.75;9.32;;;18.50;99.90;18.60;100487.00;;;;4940207;28;108955;-73
2022/08/21 01:43:20;;;;;;;12.85;9.98;;;18.40;99.90;18.60;100500.00;;;;4938057;28;122462;-73
2022/08/21 01:45:45;;;;;;;14.73;10.57;;;18.40;99.90;18.60;100497.00;;;;4944161;28;123058;-73
2022/08/21 01:48:11;;;;;;;18.67;10.05;;;18.40;99.90;18.60;100499.00;;;;4941192;28;112482;-74
2022/08/21 01:50:37;;;;;;;10.65;8.82;;;18.50;99.90;18.60;100494.00;;;;4946554;28;92903;-73
2022/08/21 01:53:03;;;;;;;15.60;10.10;;;18.50;99.90;18.60;100496.00;;;;4941268;28;93249;-73
2022/08/21 01:55:29;;;;;;;14.57;11.30;;;18.40;99.90;18.60;100497.00;;;;4935080;28;101755;-74
2022/08/21 01:57:55;;;;;;;9.65;8.50;;;18.50;99.90;18.60;100494.00;;;;4945551;28;112269;-72
2022/08/21 02:00:23;;;;;;;12.98;9.65;;;18.40;99.90;18.60;100493.00;;;;4946740;28;93013;-74
2022/08/21 02:02:49;;;;;;;16.08;9.80;;;18.40;99.90;18.60;100498.00;;;;4943971;28;93716;-73
2022/08/21 02:05:15;;;;;;;10.77;8.73;;;18.40;99.90;18.60;100505.00;;;;4934864;28;94025;-74
2022/08/21 02:07:47;;;;;;;15.25;9.90;;;18.40;99.90;18.60;100509.00;;;;4944170;28;92859;-73
2022/08/21 02:10:20;;;;;;;11.40;9.63;;;18.40;99.90;18.60;100506.00;;;;4939047;28;92839;-74
2022/08/21 02:12:46;;;;;;;11.55;8.00;;;18.50;99.90;18.60;100505.00;;;;4939522;28;111250;-74
2022/08/21 02:15:12;;;;;;;11.32;8.88;;;18.40;99.90;18.60;100500.00;;;;4941008;28;92979;-74
2022/08/21 02:17:49;;;;;;;15.50;10.93;;;18.40;99.90;18.60;100501.00;;;;4941266;28;92847;-74
2022/08/21 02:20:28;;;;;;;12.77;8.70;;;18.40;99.90;18.60;100505.00;;;;4941372;28;92886;-75
2022/08/21 02:22:54;;;;;;;15.80;9.38;;;18.40;99.90;18.60;100506.00;;;;4957850;28;93131;-73
2022/08/21 02:25:22;;;;;;;13.80;9.50;;;18.40;99.90;18.60;100500.00;;;;4935981;28;92966;-74
2022/08/21 02:27:48;;;;;;;13.80;9.75;;;18.40;99.90;18.60;100493.00;;;;4933622;28;92917;-74
2022/08/21 02:30:24;;;;;;;11.48;8.07;;;18.40;99.90;18.50;100492.00;;;;4941526;28;94082;-73
2022/08/21 02:32:50;;;;;;;17.75;10.63;;;18.40;99.90;18.50;100501.00;;;;4948896;28;93762;-74
2022/08/21 02:35:15;;;;;;;16.95;10.18;;;18.40;99.90;18.50;100495.00;;;;4945229;28;100314;-74
2022/08/21 02:37:55;;;;;;;16.27;10.52;;;18.40;99.90;18.50;100502.00;;;;4947905;28;113114;-73
2022/08/21 02:40:27;;;;;;;12.50;10.77;;;18.40;99.90;18.50;100487.00;;;;4930238;28;92849;-74
2022/08/21 02:42:53;;;;;;;12.35;10.52;;;18.40;99.90;18.50;100501.00;;;;4933283;28;93242;-74
2022/08/21 02:45:19;;;;;;;13.25;11.38;;;18.40;99.90;18.50;100494.00;;;;4940916;28;105679;-74
2022/08/21 02:47:55;;;;;;;12.85;10.70;;;18.40;99.90;18.50;100490.00;;;;4938929;28;92191;-74
2022/08/21 02:50:28;;;;;;;15.73;11.40;;;18.40;99.90;18.50;100485.00;;;;4939529;28;98855;-75
2022/08/21 02:52:55;;;;;;;17.05;11.13;;;18.40;99.90;18.50;100482.00;;;;4941883;28;111946;-74
2022/08/21 02:55:28;;;;;;;16.77;13.15;;;18.40;99.90;18.50;100490.00;;;;4934691;28;94205;-74
2022/08/21 02:57:56;;;;;;;18.02;11.90;;;18.40;99.90;18.50;100487.00;;;;4938636;28;94496;-74
2022/08/21 03:00:24;;;;;;;15.45;10.50;;;18.40;99.90;18.50;100481.00;;;;4957752;28;92926;-74
2022/08/21 03:02:49;;;;;;;12.85;10.90;;;18.40;99.90;18.50;100481.00;;;;4938062;28;93578;-74
2022/08/21 03:05:17;;;;;;;16.95;12.77;;;18.40;99.90;18.50;100485.00;;;;4933935;28;110393;-74
2022/08/21 03:07:46;;;;;;;15.73;10.57;;;18.40;99.90;18.50;100486.00;;;;4942438;28;95391;-73
2022/08/21 03:10:11;;;;;;;13.50;11.23;;;18.40;99.90;18.50;100490.00;;;;4948101;28;93091;-74
2022/08/21 03:12:37;;;;;;;14.52;9.45;;;18.40;99.90;18.50;100489.00;;;;4935221;28;120253;-74
2022/08/21 03:15:09;;;;;;;14.75;10.55;;;18.40;99.90;18.50;100487.00;;;;4941141;28;121812;-74
2022/08/21 03:17:35;;;;;;;17.17;11.48;;;18.40;99.90;18.50;100480.00;;;;4939869;28;93158;-74
2022/08/21 03:20:04;;;;;;;12.52;10.50;;;18.40;99.90;18.50;100484.00;;;;4934587;28;93874;-75
2022/08/21 03:22:29;;;;;;;15.13;11.98;;;18.40;99.90;18.50;100485.00;;;;4956469;28;92990;-74
2022/08/21 03:24:57;;;;;;;13.82;11.57;;;18.40;99.90;18.50;100487.00;;;;4947456;28;122424;-74
2022/08/21 03:27:24;;;;;;;16.80;10.95;;;18.40;99.90;18.50;100490.00;;;;4939837;28;93172;-74
2022/08/21 03:29:49;;;;;;;13.90;10.50;;;18.40;99.90;18.50;100486.00;;;;4941659;28;93477;-74
2022/08/21 03:32:15;;;;;;;11.80;10.68;;;18.40;99.90;18.50;100490.00;;;;4945707;28;110394;-74
2022/08/21 03:34:41;;;;;;;13.35;9.18;;;18.40;99.90;18.50;100501.00;;;;4940180;28;122932;-74
2022/08/21 03:37:09;;;;;;;13.02;11.00;;;18.40;99.90;18.50;100496.00;;;;4947408;28;92037;-74
2022/08/21 03:39:35;;;;;;;10.55;9.45;;;18.40;99.90;18.50;100493.00;;;;4938978;28;93185;-74
2022/08/21 03:42:01;;;;;;;12.20;10.05;;;18.40;99.90;18.50;100499.00;;;;4944817;28;93082;-74
2022/08/21 03:44:28;;;;;;;14.48;9.65;;;18.40;99.90;18.50;100494.00;;;;4942017;28;123588;-74
2022/08/21 03:46:55;;;;;;;12.45;10.00;;;18.40;99.90;18.50;100506.00;;;;4941453;28;93037;-74
2022/08/21 03:49:21;;;;;;;12.05;10.10;;;18.40;99.90;18.50;100510.00;;;;4941541;28;92853;-72
2022/08/21 03:51:47;;;;;;;12.95;9.35;;;18.40;99.90;18.50;100498.00;;;;4964118;28;123426;-74
2022/08/21 03:54:13;;;;;;;13.60;10.93;;;18.40;99.90;18.50;100496.00;;;;4949763;28;101293;-74
2022/08/21 03:56:39;;;;;;;14.18;9.98;;;18.40;99.90;18.50;100501.00;;;;4943579;28;92691;-72
2022/08/21 03:59:05;;;;;;;16.98;9.48;;;18.40;99.90;18.50;100497.00;;;;4944079;28;93190;-73
2022/08/21 04:06:42;;;;;;;14.40;9.88;;;18.40;99.90;18.50;100518.00;;;;5275152;22;93126;-72
2022/08/21 04:09:08;;;;;;;17.17;11.75;;;18.30;99.90;18.50;100509.00;;;;4921065;28;94123;-73
2022/08/21 04:11:34;;;;;;;18.15;11.00;;;18.30;99.90;18.50;100506.00;;;;4926871;28;122891;-73
2022/08/21 04:13:59;;;;;;;11.73;9.98;;;18.30;99.90;18.50;100505.00;;;;4929244;28;95568;-73
2022/08/21 04:16:25;;;;;;;13.90;10.40;;;18.30;99.90;18.50;100500.00;;;;4925718;28;113341;-73
2022/08/21 04:18:51;;;;;;;11.98;9.68;;;18.30;99.90;18.50;100499.00;;;;4925276;28;92847;-73
2022/08/21 04:21:16;;;;;;;14.80;9.80;;;18.30;99.90;18.50;100505.00;;;;4922261;28;120315;-73
2022/08/21 04:23:42;;;;;;;11.48;9.35;;;18.30;99.90;18.50;100502.00;;;;4921886;28;122210;-73
2022/08/21 04:26:09;;;;;;;13.68;8.55;;;18.30;99.90;18.50;100499.00;;;;4921156;28;92181;-73
2022/08/21 04:28:35;;;;;;;13.35;8.98;;;18.30;99.90;18.50;100504.00;;;;4923748;28;108050;-73
2022/08/21 04:31:01;;;;;;;15.93;10.50;;;18.30;99.90;18.50;100502.00;;;;4924637;28;120996;-73
2022/08/21 04:33:27;;;;;;;14.10;11.23;;;18.30;99.90;18.50;100502.00;;;;4925556;28;94048;-73
2022/08/21 04:35:53;;;;;;;13.02;9.45;;;18.30;99.90;18.50;100517.00;;;;4921568;28;95782;-73
2022/08/21 04:38:18;;;;;;;12.55;9.82;;;18.30;99.90;18.50;100510.00;;;;4922800;28;100299;-73
2022/08/21 04:40:44;;;;;;;9.93;8.48;;;18.30;99.90;18.50;100517.00;;;;4921588;28;93858;-72
2022/08/21 04:43:11;;;;;;;11.43;8.95;;;18.30;99.90;18.50;100515.00;;;;4931522;28;122484;-72
2022/08/21 04:45:42;;;;;;;12.80;9.57;;;18.30;99.90;18.50;100522.00;;;;4928806;28;93080;-72
2022/08/21 04:48:10;;;;;;;11.73;9.43;;;18.30;99.90;18.50;100522.00;;;;4926142;28;93062;-72
2022/08/21 04:50:49;;;;;;;10.75;9.07;;;18.30;99.90;18.40;100523.00;;;;4923057;28;92979;-73
2022/08/21 04:53:44;;;;;;;10.68;9.55;;;18.30;99.90;18.40;100534.00;;;;4928751;28;122256;-72
2022/08/21 04:56:15;;;;;;;13.88;9.38;;;18.30;99.90;18.40;100539.00;;;;4924948;28;92818;-72
2022/08/21 04:58:42;;;;;;;12.48;9.10;;;18.30;99.90;18.50;100545.00;;;;4940002;28;93884;-73
2022/08/21 05:01:13;;;;;;;12.90;9.45;;;18.30;99.90;18.50;100544.00;;;;4921694;28;93717;-72
2022/08/21 05:03:40;;;;;;;11.82;9.30;;;18.30;99.90;18.50;100544.00;;;;4920385;28;93381;-73
2022/08/21 05:06:13;;;;;;;9.75;8.80;;;18.30;99.90;18.50;100552.00;;;;4923498;28;93126;-72
2022/08/21 05:08:40;;;;;;;12.80;9.55;;;18.40;99.90;18.50;100550.00;;;;4917910;28;94323;-72
2022/08/21 05:11:06;;;;;;;11.93;9.85;;;18.40;99.90;18.50;100552.00;;;;4916031;28;106798;-74
2022/08/21 05:13:32;;;;;;;12.95;8.77;;;18.40;99.90;18.60;100552.00;;;;4918210;28;111718;-73
2022/08/21 05:15:58;;;;;;;16.65;9.70;;;18.40;99.90;18.60;100559.00;;;;4918694;28;92378;-74
2022/08/21 05:18:24;;;;;;;13.40;9.90;;;18.40;99.90;18.60;100542.00;;;;4947289;28;93120;-73
2022/08/21 05:20:50;;;;;;;12.75;10.00;;;18.40;99.90;18.60;100560.00;;;;4924477;28;111646;-74
2022/08/21 05:23:16;;;;;;;13.13;10.13;;;18.40;99.90;18.60;100567.00;;;;4922150;28;102847;-73
2022/08/21 05:25:43;;;;;;;11.95;9.63;;;18.50;99.90;18.60;100566.00;;;;4923973;28;93056;-74
2022/08/21 05:28:10;;;;;;;12.85;8.57;;;18.50;99.90;18.70;100570.00;;;;4924588;28;92976;-73
2022/08/21 05:30:37;;;;;;;11.70;8.63;;;18.50;99.90;18.70;100572.00;;;;4920272;28;121466;-73
2022/08/21 05:33:05;;;;;;;13.32;8.65;;;18.50;99.90;18.70;100574.00;;;;4927029;28;122652;-73
2022/08/21 05:35:32;;;;;;;12.00;9.10;;;18.50;99.90;18.70;100567.00;;;;4928660;28;93006;-72
2022/08/21 05:37:58;;;;;;;13.73;8.70;;;18.60;99.90;18.80;100567.00;;;;4925981;28;93033;-72
2022/08/21 05:40:24;;;;;;;13.50;9.05;;;18.60;99.90;18.80;100565.00;;;;4937142;28;110174;-73
2022/08/21 05:42:52;;;;;;;10.10;9.05;;;18.70;99.90;18.90;100558.00;;;;4924834;28;121020;-73
2022/08/21 05:45:17;;;;;;;12.75;8.40;;;18.70;99.90;18.90;100561.00;;;;4926762;28;99630;-73
2022/08/21 05:47:43;;;;;;;9.93;8.60;;;18.70;99.90;18.90;100564.00;;;;4915748;28;108283;-73
2022/08/21 05:50:09;;;;;;;11.43;10.13;;;18.70;99.90;19.00;100563.00;;;;4921848;28;121136;-72
2022/08/21 05:52:35;;;;;;;11.38;10.18;;;18.80;99.90;19.00;100552.00;;;;4918851;28;108760;-73
2022/08/21 05:55:01;;;;;;;19.92;9.40;;;18.80;99.90;19.10;100550.00;;;;4916807;28;102605;-73
2022/08/21 05:57:27;;;;;;;14.90;9.40;;;18.90;99.90;19.10;100558.00;;;;4924672;28;108334;-73
2022/08/21 05:59:52;;;;;;;9.82;8.77;;;18.90;99.90;19.10;100551.00;;;;4918121;28;122833;-73
2022/08/21 06:02:20;;;;;;;13.38;8.50;;;19.00;99.90;19.10;100551.00;;;;4929609;28;101482;-74
2022/08/21 06:04:46;;;;;;;17.98;10.07;;;19.00;99.90;19.20;100557.00;;;;4944456;28;92102;-73
2022/08/21 06:07:12;;;;;;;13.77;7.70;;;19.50;99.90;19.20;100559.00;;;;4919954;28;92962;-73
2022/08/21 06:09:38;;;;;;;11.35;7.70;;;19.10;99.90;19.30;100547.00;;;;4925456;28;93291;-74
2022/08/21 06:12:10;;;;;;;11.50;8.55;;;19.10;99.90;19.30;100557.00;;;;4920994;28;98346;-74
2022/08/21 06:14:39;;;;;;;10.70;7.35;;;19.20;99.90;19.40;100556.00;;;;4925044;28;93009;-74
2022/08/21 06:17:08;;;;;;;13.25;8.98;;;19.20;99.90;19.40;100553.00;;;;4930933;28;92963;-75
2022/08/21 06:19:34;;;;;;;10.73;7.10;;;19.20;99.90;19.50;100555.00;;;;4914714;28;94096;-75
2022/08/21 06:22:00;;;;;;;11.38;8.00;;;19.30;99.90;19.50;100556.00;;;;4918928;28;93050;-75
2022/08/21 06:24:26;;;;;;;16.60;9.82;;;19.30;99.90;19.60;100556.00;;;;4944773;28;96615;-77
2022/08/21 06:26:53;;;;;;;8.65;7.80;;;19.30;99.90;19.60;100557.00;;;;4926130;28;93140;-75
2022/08/21 06:29:19;;;;;;;10.45;7.20;;;19.50;99.90;19.60;100558.00;;;;4923368;28;93159;-75
2022/08/21 06:31:47;;;;;;;12.07;6.90;;;19.40;99.90;19.70;100556.00;;;;4912485;28;93956;-76
2022/08/21 06:34:13;;;;;;;10.80;6.50;;;19.50;99.90;19.70;100556.00;;;;4925245;28;92785;-75
2022/08/21 06:36:39;;;;;;;9.00;7.45;;;19.50;99.90;19.70;100556.00;;;;4924860;28;93904;-75
2022/08/21 06:39:05;;;;;;;9.68;6.68;;;19.60;99.90;19.80;100558.00;;;;4918753;28;122280;-76
2022/08/21 06:41:31;;;;;;;11.05;7.85;;;19.60;99.90;19.80;100547.00;;;;4920959;28;121953;-76
2022/08/21 06:43:57;;;;;;;9.52;6.18;;;19.60;99.90;19.90;100545.00;;;;4924373;28;94842;-76
2022/08/21 06:46:26;;;;;;;9.45;6.53;;;19.70;99.90;19.90;100551.00;;;;4917137;28;106787;-76
2022/08/21 06:48:52;;;;;;;8.07;7.35;;;19.70;99.90;19.90;100546.00;;;;4935225;28;93715;-75
2022/08/21 06:51:17;;;;;;;7.55;5.55;;;19.80;99.90;20.00;100555.00;;;;4921771;28;122028;-74
2022/08/21 06:53:43;;;;;;;8.60;6.53;;;19.80;99.90;20.10;100551.00;;;;4919307;28;108623;-74
2022/08/21 06:56:09;;;;;;;9.15;7.38;;;19.90;99.90;20.10;100552.00;;;;4925181;28;96785;-73
2022/08/21 06:58:35;;;;;;;9.48;6.80;;;19.90;99.90;20.20;100562.00;;;;4916663;28;122609;-74
2022/08/21 07:01:01;;;;;;;8.80;7.10;;;20.00;99.90;20.30;100559.00;;;;4923498;28;122095;-71
2022/08/21 07:03:39;;;;;;;5.78;5.13;;;20.10;99.90;20.30;100566.00;;;;4924927;28;100962;-71
2022/08/21 07:06:06;;;;;;;8.45;6.05;;;20.10;99.90;20.40;100567.00;;;;4922078;28;92768;-71
2022/08/21 07:08:32;;;;;;;7.47;5.10;;;20.20;99.90;20.40;100568.00;;;;4922951;28;93499;-71
2022/08/21 07:11:01;;;;;;;5.28;4.13;;;20.20;99.90;20.40;100566.00;;;;4923703;28;120850;-70
2022/08/21 07:13:28;;;;;;;7.55;4.72;;;20.30;99.90;20.50;100555.00;;;;4924413;28;92989;-71
2022/08/21 07:15:53;;;;;;;5.70;4.70;;;20.30;99.90;20.50;100563.00;;;;4926941;28;93120;-72
2022/08/21 07:18:19;;;;;;;4.93;4.38;;;20.40;99.90;20.50;100566.00;;;;4927361;28;121185;-72
2022/08/21 07:20:46;;;;;;;8.85;5.75;;;20.40;99.90;20.50;100565.00;;;;4924586;28;121769;-71
2022/08/21 07:23:26;;;;;;;6.13;4.30;;;20.40;99.90;20.60;100574.00;;;;4931439;28;109903;-71
2022/08/21 07:25:52;;;;;;;11.05;5.20;;;20.40;99.90;20.60;100570.00;;;;4928152;28;94064;-71
2022/08/21 07:28:17;;;;;;;6.00;4.90;;;20.40;99.90;20.70;100579.00;;;;4930321;28;122827;-69
2022/08/21 07:30:43;;;;;;;16.67;4.63;;;20.50;99.90;20.70;100573.00;;;;4925481;28;120537;-70
2022/08/21 07:33:09;;;;;;;7.43;5.28;;;20.50;99.90;20.80;100568.00;;;;4923358;28;92978;-69
2022/08/21 07:35:35;;;;;;;6.40;4.78;;;20.50;99.90;20.80;100579.00;;;;4925226;28;104682;-70
2022/08/21 07:38:00;;;;;;;5.78;4.68;;;20.60;99.90;20.80;100576.00;;;;4921108;28;93196;-70
2022/08/21 07:40:26;;;;;;;5.00;3.90;;;20.60;99.90;20.90;100572.00;;;;4921977;28;122616;-69
2022/08/21 07:42:52;;;;;;;5.15;4.15;;;20.70;99.90;21.00;100573.00;;;;4929672;28;92033;-68
2022/08/21 07:45:21;;;;;;;5.00;4.05;;;20.80;99.90;21.00;100573.00;;;;4920215;28;93069;-69
2022/08/21 07:47:48;;;;;;;6.55;3.88;;;20.80;99.90;21.10;100566.00;;;;4922497;28;93458;-67
2022/08/21 07:50:14;;;;;;;3.05;2.75;;;20.90;99.90;21.30;100568.00;;;;4923954;28;119519;-69
2022/08/21 07:52:42;;;;;;;3.90;3.45;;;21.00;99.90;21.40;100569.00;;;;4920586;28;92771;-69
2022/08/21 07:55:13;;;;;;;4.32;3.15;;;21.10;99.90;21.50;100567.00;;;;4926895;28;93120;-68
2022/08/21 07:57:39;;;;;;;3.47;2.70;;;21.20;99.90;21.60;100571.00;;;;4925329;28;113206;-66
2022/08/21 08:00:09;;;;;;;3.08;2.38;;;21.30;99.90;21.60;100570.00;;;;4920294;28;106767;-67
2022/08/21 08:02:35;;;;;;;4.82;2.40;;;21.40;99.90;21.70;100563.00;;;;4929168;28;92918;-68
2022/08/21 08:05:05;;;;;;;4.15;2.95;;;21.50;99.90;21.80;100564.00;;;;4925929;28;108024;-66
2022/08/21 08:07:31;;;;;;;6.97;2.25;;;21.60;99.90;21.80;100564.00;;;;4925504;28;93470;-66
2022/08/21 08:09:58;;;;;;;5.60;2.72;;;21.60;99.90;22.00;100562.00;;;;4922206;28;93091;-66
2022/08/21 08:12:28;;;;;;;2.72;2.33;;;21.50;99.90;22.10;100568.00;;;;4928113;28;93167;-65
2022/08/21 08:14:58;;;;;;;2.67;2.45;;;21.80;99.90;22.30;100563.00;;;;4942623;28;93809;-66
2022/08/21 08:17:24;;;;;;;4.32;2.60;;;22.00;99.90;22.40;100558.00;;;;4926700;28;105072;-67
2022/08/21 08:19:50;;;;;;;5.57;2.00;;;22.10;99.90;22.50;100572.00;;;;4924943;28;93706;-67
2022/08/21 08:22:19;;;;;;;3.53;2.38;;;22.30;99.90;22.70;100576.00;;;;4928192;28;110027;-66
2022/08/21 08:24:46;;;;;;;3.45;1.80;;;22.40;99.90;22.90;100582.00;;;;4927089;28;92724;-67
2022/08/21 08:27:12;;;;;;;2.53;2.28;;;22.60;99.90;23.00;100573.00;;;;4924099;28;116289;-66
2022/08/21 08:29:38;;;;;;;2.65;1.90;;;22.70;99.90;23.10;100579.00;;;;4924391;28;93540;-66
2022/08/21 08:32:07;;;;;;;2.10;1.90;;;22.90;99.90;23.30;100594.00;;;;4923244;28;110288;-67
2022/08/21 08:34:33;;;;;;;1.48;1.38;;;23.00;99.90;23.50;100593.00;;;;4928498;28;93147;-67
2022/08/21 08:36:59;;;;;;;2.95;1.35;;;23.20;99.90;23.70;100602.00;;;;4916443;28;108644;-68
2022/08/21 08:39:25;;;;;;;3.28;1.77;;;23.30;99.90;23.90;100595.00;;;;4925084;28;122547;-66
2022/08/21 08:42:04;;;;;;;2.75;2.42;;;23.50;99.90;24.00;100587.00;;;;4927658;28;92706;-66
2022/08/21 08:44:30;;;;;;;2.10;1.90;;;23.70;99.90;24.30;100597.00;;;;4920301;28;100965;-66
2022/08/21 08:46:58;;;;;;;2.00;1.75;;;23.90;99.90;24.40;100604.00;;;;4921877;28;122080;-66
2022/08/21 08:49:36;;;;;;;1.45;1.25;;;24.10;99.90;24.60;100604.00;;;;4938464;28;103523;-66
2022/08/21 08:52:26;;;;;;;2.10;1.42;;;24.20;99.90;24.80;100603.00;;;;4928205;28;97266;-67
2022/08/21 08:55:14;;;;;;;1.77;1.27;;;24.40;99.90;24.90;100609.00;;;;4931649;28;92757;-65
2022/08/21 08:57:45;;;;;;;1.58;1.42;;;24.60;99.90;25.00;100604.00;;;;4926701;28;93280;-66
2022/08/21 09:00:15;;;;;;;2.97;1.38;;;24.70;99.90;25.00;100609.00;;;;4927011;28;93125;-66
2022/08/21 09:02:45;;;;;;;2.13;1.35;;;24.70;99.90;25.10;100604.00;;;;4927690;28;92837;-65
2022/08/21 09:05:23;;;;;;;2.22;1.10;;;24.80;99.90;25.10;100592.00;;;;4925417;28;94301;-66
2022/08/21 09:08:21;;;;;;;1.15;0.80;;;24.80;99.90;25.10;100604.00;;;;4917418;28;93206;-66
2022/08/21 09:11:15;;;;;;;1.45;1.35;;;24.80;99.90;25.20;100598.00;;;;4897350;28;93694;-66
2022/08/21 09:13:56;;;;;;;1.23;0.93;;;25.00;99.90;25.30;100602.00;;;;4923871;28;96264;-67
2022/08/21 09:16:54;;;;;;;2.05;1.27;;;25.00;99.90;25.60;100602.00;;;;4924273;28;92916;-66
2022/08/21 09:19:38;;;;;;;1.40;1.30;;;25.20;99.90;25.90;100602.00;;;;4927268;28;112101;-66
2022/08/21 09:22:39;;;;;;;1.38;1.27;;;25.50;99.90;26.20;100601.00;;;;4918941;28;110912;-66
2022/08/21 09:25:20;;;;;;;1.88;0.90;;;25.80;99.90;26.50;100600.00;;;;4921032;28;92349;-67
2022/08/21 09:27:46;;;;;;;1.33;0.88;;;26.10;99.90;26.60;100587.00;;;;4925916;28;93898;-66
2022/08/21 09:30:13;;;;;;;1.70;0.93;;;26.20;99.90;26.70;100597.00;;;;4917106;28;123120;-66
2022/08/21 09:32:39;;;;;;;1.33;0.80;;;26.30;99.90;26.80;100583.00;;;;4923150;28;122965;-66
2022/08/21 09:35:10;;;;;;;0.55;0.55;;;26.40;99.90;26.90;100591.00;;;;4922524;28;109502;-66
2022/08/21 09:38:07;;;;;;;0.90;0.90;;;26.50;99.90;26.90;100583.00;;;;4922968;28;92982;-66
2022/08/21 09:40:41;;;;;;;0.82;0.82;;;26.60;99.90;27.00;100580.00;;;;4915398;28;94110;-66
2022/08/21 09:43:19;;;;;;;1.08;0.90;;;26.60;99.90;27.00;100579.00;;;;4919935;28;93361;-66
2022/08/21 09:45:47;;;;;;;1.48;0.90;;;26.70;99.90;27.10;100577.00;;;;4925133;28;92974;-66
2022/08/21 09:48:24;;;;;;;4.63;0.85;;;26.70;99.90;27.20;100582.00;;;;4924667;28;93047;-65
2022/08/21 09:50:51;;;;;;;1.08;0.70;;;26.80;99.90;27.10;100587.00;;;;4927151;28;92361;-66
2022/08/21 09:53:25;;;;;;;1.00;0.90;;;26.80;99.90;27.10;100581.00;;;;4925159;28;113648;-66
2022/08/21 09:58:46;;;;;;;0.93;0.55;;;26.70;99.90;27.10;100570.00;;;;4935679;28;94026;-66
2022/08/21 10:01:24;;;;;;;1.35;1.10;;;26.80;99.20;27.20;100574.00;;;;4921665;28;111992;-66
2022/08/21 10:04:10;;;;;;;1.27;0.73;;;26.80;98.80;27.30;100569.00;;;;4924090;28;93390;-67
2022/08/21 10:06:36;;;;;;;1.75;0.63;;;26.90;98.90;27.50;100567.00;;;;4922540;28;92781;-66
2022/08/21 10:09:10;;;;;;;0.85;0.32;;;27.00;98.80;27.60;100568.00;;;;4928889;28;92901;-66
2022/08/21 10:11:36;;;;;;;1.30;0.70;;;27.10;98.00;27.70;100566.00;;;;4927868;28;93721;-67
2022/08/21 10:14:33;;;;;;;1.20;1.08;;;27.20;96.90;27.70;100574.00;;;;4941825;28;92915;-67
2022/08/21 10:17:40;;;;;;;1.25;0.60;;;27.20;97.00;27.60;100577.00;;;;4917923;28;92543;-66
2022/08/21 10:20:22;;;;;;;4.28;1.20;;;27.20;96.40;27.40;100569.00;;;;4932166;28;102319;-66
2022/08/21 10:23:20;;;;;;;1.95;0.70;;;27.10;94.80;27.10;100567.00;;;;4926062;28;110703;-65
2022/08/21 10:26:25;;;;;;;0.40;0.40;;;26.80;95.20;26.90;100574.00;;;;4927193;28;114968;-65
2022/08/21 10:29:00;;;;;;;0.95;0.70;;;26.70;95.90;26.90;100567.00;;;;4918665;28;92896;-66
2022/08/21 10:31:50;;;;;;;0.32;0.30;;;26.60;96.10;26.80;100582.00;;;;4922159;28;92872;-65
2022/08/21 10:34:31;;;;;;;1.92;0.70;;;26.50;94.60;26.60;100573.00;;;;4929369;28;94136;-66
2022/08/21 10:37:38;;;;;;;1.60;0.65;;;26.40;93.70;26.50;100573.00;;;;4921150;28;93066;-65
2022/08/21 10:40:40;;;;;;;0.45;0.38;;;26.20;93.50;26.50;100575.00;;;;4890541;28;99510;-66
2022/08/21 10:44:09;;;;;;;0.85;0.80;;;26.20;93.90;26.50;100577.00;;;;4937546;28;99961;-65
2022/08/21 10:47:09;;;;;;;0.50;0.43;;;26.20;93.60;26.50;100574.00;;;;4926159;28;92958;-67
2022/08/21 10:49:53;;;;;;;0.75;0.70;;;26.20;93.50;26.60;100578.00;;;;4924439;28;93040;-66
2022/08/21 10:52:46;;;;;;;0.60;0.40;;;26.20;92.50;26.50;100588.00;;;;4925468;28;102012;-65
2022/08/21 10:55:26;;;;;;;0.63;0.55;;;26.20;88.80;26.30;100578.00;;;;4921783;28;93881;-65
2022/08/21 10:58:05;;;;;;;0.82;0.70;;;26.10;86.80;26.30;100590.00;;;;4934307;28;93555;-67
2022/08/21 11:00:53;;;;;;;1.50;0.75;;;26.00;87.20;26.20;100579.00;;;;4924758;28;93635;-65